Madison, KS

10:35 PM CDT on October 24, 2014 (GMT -0500)
T-K Weather Station West Hartford, Kansas | Change Station
CLOSE
Current Station
Personal Weather Station
Location: Hartford, KS
Elevation: 1129 ft
Nearby Weather Stations

Elev 1129 ft 38.28 °N, 96.05 °W | Updated 14 minutes ago

Clear
Clear
66.7 °F
Feels Like 66.7 °F
N
1.7
Wind Variable Wind from North

Today
High -- | Low -- °F
--% Chance of Precip.
Yesterday
High -- | Low -- °F
Precip. -- in
7:41 AM 6:34 PM
New Moon, 2% visible
Pressure 29.99 in
Visibility 10.0 miles
Clouds Clear
Dew Point 63 °F
Humidity 87%
Rainfall 0.00 in
Snow Depth Not available.
UV 0 out of 12
Pollen 3.40 out of 12
Air Quality Not available.
Flu Activity No Activity
METAR KEMP 250253Z AUTO 19008KT 10SM CLR 17/16 A2999 RMK AO2 SLP154 T01670161 52007

More Conditions Fewer Conditions

Pressure 29.99 in
Visibility 10.0 miles
Clouds Clear
Dew Point 63 °F
Humidity 87%
Rainfall 0.00 in
Snow Depth Not available.
UV 0 out of 12
Pollen 3.40 out of 12
Air Quality Not available.
Flu Activity No Activity
METAR KEMP 250253Z AUTO 19008KT 10SM CLR 17/16 A2999 RMK AO2 SLP154 T01670161 52007

More Conditions Fewer Conditions

10-Day Weather Forecast

Almanac

Astronomy

Oct. 24, 2014 Rise Set
Actual Time 7:41 AM CDT 6:34 PM CDT
Civil Twilight 7:14 AM CDT 7:01 PM CDT
Nautical Twilight 6:43 AM CDT 7:31 PM CDT
Astronomical Twilight 6:13 AM CDT 8:02 PM CDT
Moon 8:21 AM CDT (10/24) 7:15 PM CDT (10/24)
Length of Visible Light 11h 46m
Length of Day
10h 52m
Tomorrow will be 2m 16s shorter.
New Moon, 2% of the Moon is Illuminated
Today
New Moon
Oct 30
First Quarter
Nov 6
Full
Nov 14
Last Quarter
Nov 22
New

Today's Extremes

State Highs State Lows

Community

WunderPhotos

Upload Photos

1,764,771 photos uploaded!

Nearby

Snow Depth

Station Depth Elevation
No new snow has been reported.

Earthquake Activity

City Distance Mag. Time & Date
Pawnee, Oklahoma 133 miles 2.6 7:24 PM CDT
2014-10-24
Medford, Oklahoma 134 miles 2.6 12:44 PM CDT
2014-10-24
Anthony, Kansas 126 miles 2.7 4:24 AM CDT
2014-10-24
Medford, Oklahoma 137 miles 3.0 2:06 AM CDT
2014-10-23
Minimum magnitude displayed is 2.5.

Coastal Water Temperatures

Place Temperature
No Stations Reporting

Nearby Weather Stations